Vizconde de Eza — EAXB — position and weather

sailwx.info

Track history (hours):
 
Tides and Currents Weather Stations Pressure Air Temp Water Temp Dewpoint Dewpoint Depression Visibility Wind Speed Wind Dir Waves Ship Positions

Oceanographic research ship Vizconde de Eza (Spain)

Detailed information on ship capabilities available from University of Delaware's Ocean Information Center.

Last reported at 2015-Nov-30 06:20 UTC. Time now 2016-Feb-09 05:37 UTC.
Position N 41°60' W 009°01'.
Warning: this ship's position is months out of date.

Length 53 m; draft 6.2 m.

Type: Other ship. MMSI: 224582000.

Date/timePositionNaut miles runAvg speedWind from/ knotsBaromVisibWave heightAir tempDewpointWater temp
2015-Nov-30 06:20N 41°60' W 009°01'6 7.7
2015-Nov-30 05:33N 41°54' W 009°03'8 8.6
2015-Nov-30 04:34N 41°45' W 009°06'9 8.7
2015-Nov-30 03:33N 41°37' W 009°09'8 8.2
2015-Nov-30 02:34N 41°29' W 009°11'8 8.1
2015-Nov-30 01:32N 41°21' W 009°14'8 8.5
2015-Nov-30 00:32N 41°13' W 009°17'7 7.5
2015-Nov-29 23:33N 41°06' W 009°19'8 8.2
2015-Nov-29 22:34N 40°58' W 009°22'9 9.3
2015-Nov-29 21:33N 40°49' W 009°25'10 9.7
2015-Nov-29 20:32N 40°39' W 009°28'1010.0
2015-Nov-29 19:32N 40°30' W 009°31'1111.1
2015-Nov-29 18:32N 40°19' W 009°35'1010.3
2015-Nov-29 17:32N 40°09' W 009°38'1111.1
2015-Nov-29 16:33N 39°58' W 009°42'1211.8
2015-Nov-29 15:32N 39°47' W 009°45'1110.7
2015-Nov-29 14:33N 39°36' W 009°49'1110.7
2015-Nov-29 13:33N 39°26' W 009°51'1110.6
2015-Nov-29 12:33N 39°15' W 009°50'1111.1
2015-Nov-29 11:33N 39°04' W 009°50'1110.8
2015-Nov-29 10:33N 38°53' W 009°51'1110.8
2015-Nov-29 09:33N 38°43' W 009°51'1110.7
2015-Nov-29 08:33N 38°32' W 009°48'1110.6
2015-Nov-29 07:33N 38°22' W 009°45'1110.5
2015-Nov-29 06:33N 38°12' W 009°42'1110.7
2015-Nov-29 05:33N 38°01' W 009°39'1110.8
2015-Nov-29 04:33N 37°51' W 009°35'1110.8
2015-Nov-29 03:33N 37°40' W 009°32'1211.6
2015-Nov-29 02:32N 37°29' W 009°29'1110.6
2015-Nov-29 01:32N 37°18' W 009°26'10 9.8
2015-Nov-29 00:32N 37°09' W 009°24'1110.4
2015-Nov-28 23:26N 36°58' W 009°20'910.0
2015-Nov-28 22:32N 36°50' W 009°15'1010.1
2015-Nov-28 21:32N 36°44' W 009°05'1111.1
2015-Nov-28 20:32N 36°40' W 008°52'1111.2
2015-Nov-28 19:32N 36°37' W 008°39'1010.4
2015-Nov-28 18:33N 36°34' W 008°27'1211.8
2015-Nov-28 17:33N 36°30' W 008°13'1711.9
2015-Nov-28 16:08N 36°25' W 007°53'1012.0
2015-Nov-28 15:16N 36°22' W 007°41'912.0
2015-Nov-28 14:33N 36°19' W 007°30'1212.1
2015-Nov-28 13:33N 36°15' W 007°16'8310.3
2015-Nov-28 05:33N 35°58' W 005°36'9 8.6
2015-Nov-28 04:33N 35°60' W 005°26'9 9.0
2015-Nov-28 03:33N 36°02' W 005°15'10610.3
2015-Nov-27 17:15N 36°19' W 003°05'911.3
2015-Nov-27 16:29N 36°20' W 002°55'10011.2
2015-Nov-27 07:33N 37°07' W 001°04'1211.7
2015-Nov-27 06:33N 37°14' W 000°52'1211.7
2015-Nov-27 05:32N 37°20' W 000°39'1211.7
2015-Nov-27 04:33N 37°26' W 000°27'1211.5
2015-Nov-27 03:33N 37°33' W 000°15'11611.2
2015-Nov-26 17:10N 38°41' E 001°44'811.3
2015-Nov-26 16:28N 38°47' E 001°51'1011.2
2015-Nov-26 15:33N 38°55' E 001°59'1111.2
2015-Nov-26 14:33N 39°03' E 002°08'1110.7
2015-Nov-26 13:33N 39°11' E 002°17'1111.0
2015-Nov-26 12:33N 39°20' E 002°27'8 7.7
2015-Nov-26 11:33N 39°26' E 002°32'8 8.1
2015-Nov-26 10:33N 39°33' E 002°38'0 0.3
2015-Nov-26 09:32N 39°33' E 002°38'0 0.0
2015-Nov-26 08:32N 39°33' E 002°38'0 0.0
2015-Nov-26 07:29N 39°33' E 002°38'0 0.0
2015-Nov-26 06:32N 39°33' E 002°38'0 0.0
2015-Nov-26 05:32N 39°33' E 002°38'0 0.0
2015-Nov-26 04:32N 39°33' E 002°38'0 0.0
2015-Nov-26 03:32N 39°33' E 002°38'0 0.0
2015-Nov-26 02:32N 39°33' E 002°38'0 0.0
2015-Nov-26 01:32N 39°33' E 002°38'0 0.0
2015-Nov-26 00:32N 39°33' E 002°38'0 0.0
2015-Nov-25 23:32N 39°33' E 002°38'0 0.0
2015-Nov-25 22:32N 39°33' E 002°38'0 0.0
2015-Nov-25 21:32N 39°33' E 002°38'0 0.0
2015-Nov-25 20:32N 39°33' E 002°38'0 0.0
2015-Nov-25 19:32N 39°33' E 002°38'0 0.0
2015-Nov-25 18:32N 39°33' E 002°38'0 0.0
2015-Nov-25 17:32N 39°33' E 002°38'0 0.0
2015-Nov-25 16:32N 39°33' E 002°38'0 0.0
2015-Nov-25 15:32N 39°33' E 002°38'0 0.0
2015-Nov-25 14:32N 39°33' E 002°38'0 0.0
2015-Nov-25 13:32N 39°33' E 002°38'0 0.0
2015-Nov-25 12:32N 39°33' E 002°38'0 0.0
2015-Nov-25 11:32N 39°33' E 002°38'0 0.0
2015-Nov-25 10:32N 39°33' E 002°38'0 0.0
2015-Nov-25 09:32N 39°33' E 002°38'0 0.0
2015-Nov-25 08:29N 39°33' E 002°38'0 0.1
2015-Nov-25 07:33N 39°33' E 002°38'5 5.3
2015-Nov-25 06:33N 39°28' E 002°39'4 4.5
2015-Nov-25 05:33N 39°23' E 002°40'3 3.5
2015-Nov-25 04:33N 39°20' E 002°42'3 3.2
2015-Nov-25 03:33N 39°17' E 002°44'3 3.2
2015-Nov-25 02:33N 39°14' E 002°46'4 3.5
2015-Nov-25 01:33N 39°11' E 002°48'4 3.5
2015-Nov-25 00:33N 39°08' E 002°50'7 6.1
2015-Nov-24 23:27N 39°05' E 002°58'910.0
2015-Nov-24 22:33N 39°09' E 003°08'1110.8
2015-Nov-24 21:33N 39°16' E 003°19'  
Track history (hours):
 
Tides and Currents Weather Stations Pressure Air Temp Water Temp Dewpoint Dewpoint Depression Visibility Wind Speed Wind Dir Waves Ship Positions

Oceanographic research ship Vizconde de Eza (Spain)

Detailed information on ship capabilities available from University of Delaware's Ocean Information Center.

Last reported at 2015-Nov-30 06:20 UTC. Time now 2016-Feb-09 05:37 UTC.
Position N 41°60' W 009°01'.
Warning: this ship's position is months out of date.

Length 53 m; draft 6.2 m.

Type: Other ship. MMSI: 224582000.

Date/timePositionNaut miles runAvg speedWind from/ knotsBaromVisibWave heightAir tempDewpointWater temp
2015-Nov-30 06:20N 41°60' W 009°01'6 7.7
2015-Nov-30 05:33N 41°54' W 009°03'8 8.6
2015-Nov-30 04:34N 41°45' W 009°06'9 8.7
2015-Nov-30 03:33N 41°37' W 009°09'8 8.2
2015-Nov-30 02:34N 41°29' W 009°11'8 8.1
2015-Nov-30 01:32N 41°21' W 009°14'8 8.5
2015-Nov-30 00:32N 41°13' W 009°17'7 7.5
2015-Nov-29 23:33N 41°06' W 009°19'8 8.2
2015-Nov-29 22:34N 40°58' W 009°22'9 9.3
2015-Nov-29 21:33N 40°49' W 009°25'10 9.7
2015-Nov-29 20:32N 40°39' W 009°28'1010.0
2015-Nov-29 19:32N 40°30' W 009°31'1111.1
2015-Nov-29 18:32N 40°19' W 009°35'1010.3
2015-Nov-29 17:32N 40°09' W 009°38'1111.1
2015-Nov-29 16:33N 39°58' W 009°42'1211.8
2015-Nov-29 15:32N 39°47' W 009°45'1110.7
2015-Nov-29 14:33N 39°36' W 009°49'1110.7
2015-Nov-29 13:33N 39°26' W 009°51'1110.6
2015-Nov-29 12:33N 39°15' W 009°50'1111.1
2015-Nov-29 11:33N 39°04' W 009°50'1110.8
2015-Nov-29 10:33N 38°53' W 009°51'1110.8
2015-Nov-29 09:33N 38°43' W 009°51'1110.7
2015-Nov-29 08:33N 38°32' W 009°48'1110.6
2015-Nov-29 07:33N 38°22' W 009°45'1110.5
2015-Nov-29 06:33N 38°12' W 009°42'1110.7
2015-Nov-29 05:33N 38°01' W 009°39'1110.8
2015-Nov-29 04:33N 37°51' W 009°35'1110.8
2015-Nov-29 03:33N 37°40' W 009°32'1211.6
2015-Nov-29 02:32N 37°29' W 009°29'1110.6
2015-Nov-29 01:32N 37°18' W 009°26'10 9.8
2015-Nov-29 00:32N 37°09' W 009°24'1110.4
2015-Nov-28 23:26N 36°58' W 009°20'910.0
2015-Nov-28 22:32N 36°50' W 009°15'1010.1
2015-Nov-28 21:32N 36°44' W 009°05'1111.1
2015-Nov-28 20:32N 36°40' W 008°52'1111.2
2015-Nov-28 19:32N 36°37' W 008°39'1010.4
2015-Nov-28 18:33N 36°34' W 008°27'1211.8
2015-Nov-28 17:33N 36°30' W 008°13'1711.9
2015-Nov-28 16:08N 36°25' W 007°53'1012.0
2015-Nov-28 15:16N 36°22' W 007°41'912.0
2015-Nov-28 14:33N 36°19' W 007°30'1212.1
2015-Nov-28 13:33N 36°15' W 007°16'8310.3
2015-Nov-28 05:33N 35°58' W 005°36'9 8.6
2015-Nov-28 04:33N 35°60' W 005°26'9 9.0
2015-Nov-28 03:33N 36°02' W 005°15'10610.3
2015-Nov-27 17:15N 36°19' W 003°05'911.3
2015-Nov-27 16:29N 36°20' W 002°55'10011.2
2015-Nov-27 07:33N 37°07' W 001°04'1211.7
2015-Nov-27 06:33N 37°14' W 000°52'1211.7
2015-Nov-27 05:32N 37°20' W 000°39'1211.7
2015-Nov-27 04:33N 37°26' W 000°27'1211.5
2015-Nov-27 03:33N 37°33' W 000°15'11611.2
2015-Nov-26 17:10N 38°41' E 001°44'811.3
2015-Nov-26 16:28N 38°47' E 001°51'1011.2
2015-Nov-26 15:33N 38°55' E 001°59'1111.2
2015-Nov-26 14:33N 39°03' E 002°08'1110.7
2015-Nov-26 13:33N 39°11' E 002°17'1111.0
2015-Nov-26 12:33N 39°20' E 002°27'8 7.7
2015-Nov-26 11:33N 39°26' E 002°32'8 8.1
2015-Nov-26 10:33N 39°33' E 002°38'0 0.3
2015-Nov-26 09:32N 39°33' E 002°38'0 0.0
2015-Nov-26 08:32N 39°33' E 002°38'0 0.0
2015-Nov-26 07:29N 39°33' E 002°38'0 0.0
2015-Nov-26 06:32N 39°33' E 002°38'0 0.0
2015-Nov-26 05:32N 39°33' E 002°38'0 0.0
2015-Nov-26 04:32N 39°33' E 002°38'0 0.0
2015-Nov-26 03:32N 39°33' E 002°38'0 0.0
2015-Nov-26 02:32N 39°33' E 002°38'0 0.0
2015-Nov-26 01:32N 39°33' E 002°38'0 0.0
2015-Nov-26 00:32N 39°33' E 002°38'0 0.0
2015-Nov-25 23:32N 39°33' E 002°38'0 0.0
2015-Nov-25 22:32N 39°33' E 002°38'0 0.0
2015-Nov-25 21:32N 39°33' E 002°38'0 0.0
2015-Nov-25 20:32N 39°33' E 002°38'0 0.0
2015-Nov-25 19:32N 39°33' E 002°38'0 0.0
2015-Nov-25 18:32N 39°33' E 002°38'0 0.0
2015-Nov-25 17:32N 39°33' E 002°38'0 0.0
2015-Nov-25 16:32N 39°33' E 002°38'0 0.0
2015-Nov-25 15:32N 39°33' E 002°38'0 0.0
2015-Nov-25 14:32N 39°33' E 002°38'0 0.0
2015-Nov-25 13:32N 39°33' E 002°38'0 0.0
2015-Nov-25 12:32N 39°33' E 002°38'0 0.0
2015-Nov-25 11:32N 39°33' E 002°38'0 0.0
2015-Nov-25 10:32N 39°33' E 002°38'0 0.0
2015-Nov-25 09:32N 39°33' E 002°38'0 0.0
2015-Nov-25 08:29N 39°33' E 002°38'0 0.1
2015-Nov-25 07:33N 39°33' E 002°38'5 5.3
2015-Nov-25 06:33N 39°28' E 002°39'4 4.5
2015-Nov-25 05:33N 39°23' E 002°40'3 3.5
2015-Nov-25 04:33N 39°20' E 002°42'3 3.2
2015-Nov-25 03:33N 39°17' E 002°44'3 3.2
2015-Nov-25 02:33N 39°14' E 002°46'4 3.5
2015-Nov-25 01:33N 39°11' E 002°48'4 3.5
2015-Nov-25 00:33N 39°08' E 002°50'7 6.1
2015-Nov-24 23:27N 39°05' E 002°58'910.0
2015-Nov-24 22:33N 39°09' E 003°08'1110.8
2015-Nov-24 21:33N 39°16' E 003°19'  

Dump ship's entire track history